Time;durP1;ratioP1;P1;durP2;ratioP2;P2;SDS_P1;SDS_P2;PMS_P1;PMS_P2;Temp;Humidity;BMP_temperature;BMP_pressure;BME280_temperature;BME280_humidity;BME280_pressure;Samples;Min_cycle;Max_cycle;Signal;HPM_P1;HPM_P2
2022/10/06 00:00:43;;;;;;;2.90;0.97;;;14.60;99.90;;;;;;6247106;22;20151;-45
2022/10/06 00:03:09;;;;;;;4.43;1.00;;;14.60;99.90;;;;;;6247185;22;20620;-45
2022/10/06 00:05:34;;;;;;;6.07;1.00;;;14.60;99.90;;;;;;6245458;23;20166;-45
2022/10/06 00:08:01;;;;;;;2.37;1.00;;;14.50;99.90;;;;;;6247008;22;20501;-46
2022/10/06 00:10:28;;;;;;;5.13;1.07;;;14.40;99.90;;;;;;6247049;22;20155;-47
2022/10/06 00:12:54;;;;;;;2.20;0.97;;;14.50;99.90;;;;;;6247307;22;20178;-43
2022/10/06 00:15:30;;;;;;;4.53;0.80;;;14.40;99.90;;;;;;6246818;22;20659;-45
2022/10/06 00:17:56;;;;;;;9.17;1.50;;;14.40;99.90;;;;;;6246899;22;20174;-45
2022/10/06 00:20:24;;;;;;;8.03;1.03;;;14.40;99.90;;;;;;6247188;22;20156;-43
2022/10/06 00:22:50;;;;;;;2.30;1.00;;;14.30;99.90;;;;;;6247291;22;20159;-47
2022/10/06 00:25:19;;;;;;;3.13;0.80;;;14.30;99.90;;;;;;6247490;22;20159;-43
2022/10/06 00:27:46;;;;;;;2.73;1.00;;;14.30;99.90;;;;;;6246922;22;20672;-42
2022/10/06 00:30:19;;;;;;;4.43;0.73;;;14.20;99.90;;;;;;6247357;22;20152;-46
2022/10/06 00:32:59;;;;;;;7.07;1.17;;;14.20;99.90;;;;;;6248299;22;20159;-44
2022/10/06 00:35:28;;;;;;;3.53;1.00;;;14.10;99.90;;;;;;6247239;22;20198;-42
2022/10/06 00:37:53;;;;;;;6.43;1.60;;;14.10;99.90;;;;;;6247130;22;20175;-43
2022/10/06 00:40:21;;;;;;;5.13;1.20;;;14.10;99.90;;;;;;6247231;22;20163;-40
2022/10/06 00:42:53;;;;;;;2.30;1.10;;;14.00;99.90;;;;;;6247236;22;20163;-42
2022/10/06 00:45:41;;;;;;;5.70;0.87;;;14.00;99.90;;;;;;6247273;22;20210;-43
2022/10/06 00:48:17;;;;;;;3.80;1.20;;;14.00;99.90;;;;;;6247196;22;20179;-42
2022/10/06 00:50:44;;;;;;;7.73;1.63;;;13.90;99.90;;;;;;6246917;22;20476;-40
2022/10/06 00:53:10;;;;;;;4.13;1.13;;;13.90;99.90;;;;;;6247419;22;20170;-41
2022/10/06 00:55:36;;;;;;;4.17;1.30;;;13.90;99.90;;;;;;6246676;22;20183;-43
2022/10/06 00:58:03;;;;;;;4.00;0.90;;;13.80;99.90;;;;;;6246504;22;20198;-42
2022/10/06 01:00:28;;;;;;;6.33;1.30;;;13.80;99.90;;;;;;6246946;22;20151;-41
2022/10/06 01:03:08;;;;;;;3.53;1.10;;;13.80;99.90;;;;;;6247117;22;20148;-42
2022/10/06 01:05:40;;;;;;;4.40;1.00;;;13.80;99.90;;;;;;6246862;22;20221;-42
2022/10/06 01:08:07;;;;;;;3.57;1.03;;;13.80;99.90;;;;;;6246769;22;20182;-41
2022/10/06 01:10:33;;;;;;;4.27;1.30;;;13.80;99.90;;;;;;6245371;23;20159;-39
2022/10/06 01:12:59;;;;;;;6.57;1.53;;;13.70;99.90;;;;;;6246748;22;20155;-38
2022/10/06 01:15:26;;;;;;;4.77;1.00;;;13.70;99.90;;;;;;6246362;22;20179;-40
2022/10/06 01:18:01;;;;;;;4.20;1.40;;;13.60;99.90;;;;;;6246703;22;20241;-41
2022/10/06 01:20:28;;;;;;;4.07;1.20;;;13.60;99.90;;;;;;6246850;22;20159;-41
2022/10/06 01:23:04;;;;;;;3.27;1.00;;;13.60;99.90;;;;;;6246405;22;20158;-38
2022/10/06 01:25:31;;;;;;;5.07;1.03;;;13.60;99.90;;;;;;6244877;23;20149;-40
2022/10/06 01:27:58;;;;;;;4.20;1.43;;;13.50;99.90;;;;;;6246528;22;20188;-41
2022/10/06 01:30:51;;;;;;;7.80;1.30;;;13.50;99.90;;;;;;6246348;22;20605;-39
2022/10/06 01:43:54;;;;;;;6.60;1.30;;;13.40;99.90;;;;;;6247190;22;20706;-48
2022/10/06 01:46:20;;;;;;;10.03;1.87;;;14.00;99.90;;;;;;6246815;22;20542;-48
2022/10/06 01:48:45;;;;;;;5.20;1.00;;;13.30;99.90;;;;;;6246421;22;20175;-48
2022/10/06 01:51:15;;;;;;;6.33;1.20;;;13.20;99.90;;;;;;6246613;22;20207;-48
2022/10/06 01:53:41;;;;;;;4.97;1.40;;;13.20;99.90;;;;;;6246722;22;20206;-48
2022/10/06 01:56:07;;;;;;;6.77;1.57;;;13.10;99.90;;;;;;6246245;22;20159;-48
2022/10/06 01:58:33;;;;;;;3.63;1.70;;;13.10;99.90;;;;;;6246464;22;20215;-47
2022/10/06 02:01:03;;;;;;;7.97;1.43;;;13.10;99.90;;;;;;6246530;22;20155;-48
2022/10/06 02:03:29;;;;;;;8.13;1.40;;;13.10;99.90;;;;;;6246549;22;20189;-48
2022/10/06 02:05:55;;;;;;;5.83;1.30;;;13.00;99.90;;;;;;6246303;22;20186;-49
2022/10/06 02:08:21;;;;;;;4.03;1.37;;;13.00;99.90;;;;;;6245026;23;20626;-48
2022/10/06 02:10:46;;;;;;;4.53;1.20;;;12.90;99.90;;;;;;6246553;22;20206;-48
2022/10/06 02:13:12;;;;;;;8.03;1.37;;;12.90;99.90;;;;;;6246727;22;20674;-49
2022/10/06 02:15:38;;;;;;;8.87;1.70;;;12.90;99.90;;;;;;6246852;23;20182;-48
2022/10/06 02:18:03;;;;;;;7.40;1.43;;;12.90;99.90;;;;;;6248501;22;20623;-49
2022/10/06 02:20:29;;;;;;;7.17;1.47;;;12.80;99.90;;;;;;6248225;22;20485;-49
2022/10/06 02:22:54;;;;;;;8.17;1.40;;;12.90;99.90;;;;;;6248490;22;20234;-46
2022/10/06 02:25:20;;;;;;;6.43;1.50;;;12.90;99.90;;;;;;6248417;22;20151;-48
2022/10/06 02:27:46;;;;;;;9.13;1.23;;;12.90;99.90;;;;;;6246690;23;20183;-49
2022/10/06 02:30:13;;;;;;;5.97;1.10;;;12.80;99.90;;;;;;6248440;22;20546;-48
2022/10/06 02:32:41;;;;;;;8.17;1.57;;;12.80;99.90;;;;;;6221845;23;20572;-48
2022/10/06 02:35:09;;;;;;;4.67;1.20;;;12.80;99.90;;;;;;6247900;22;20184;-47
2022/10/06 02:37:34;;;;;;;6.47;1.40;;;12.70;99.90;;;;;;6247869;22;20195;-48
2022/10/06 02:40:00;;;;;;;6.60;1.50;;;12.70;99.90;;;;;;6248547;22;20206;-47
2022/10/06 02:42:26;;;;;;;12.47;1.73;;;12.60;99.90;;;;;;6248609;22;20221;-48
2022/10/06 02:44:52;;;;;;;4.33;1.57;;;12.60;99.90;;;;;;6248185;22;20183;-48
2022/10/06 02:47:18;;;;;;;8.77;1.10;;;12.50;99.90;;;;;;6246517;23;20507;-47
2022/10/06 02:49:45;;;;;;;6.77;1.53;;;12.50;99.90;;;;;;6248119;22;20187;-48
2022/10/06 02:52:10;;;;;;;4.57;1.27;;;12.40;99.90;;;;;;6248299;22;20581;-47
2022/10/06 02:54:36;;;;;;;12.03;1.50;;;12.40;99.90;;;;;;6247534;22;20175;-46
2022/10/06 02:57:02;;;;;;;11.07;1.77;;;12.40;99.90;;;;;;6247595;22;20175;-47
2022/10/06 02:59:27;;;;;;;10.70;1.77;;;12.30;99.90;;;;;;6247643;22;20154;-48
2022/10/06 03:01:53;;;;;;;6.20;1.37;;;12.30;99.90;;;;;;6248082;22;20210;-48
2022/10/06 03:04:19;;;;;;;5.53;1.53;;;12.20;99.90;;;;;;6248309;22;20152;-49
2022/10/06 03:06:45;;;;;;;7.67;1.47;;;12.10;99.90;;;;;;6247890;22;20171;-48
2022/10/06 03:09:10;;;;;;;8.27;1.40;;;12.10;99.90;;;;;;6247915;22;20614;-47
2022/10/06 03:11:41;;;;;;;6.10;1.37;;;12.00;99.90;;;;;;6246048;23;20457;-48
2022/10/06 03:14:06;;;;;;;9.07;1.30;;;12.00;99.90;;;;;;6248243;22;20176;-48
2022/10/06 03:16:35;;;;;;;11.17;1.43;;;11.90;99.90;;;;;;6248304;22;20221;-49
2022/10/06 03:19:01;;;;;;;8.43;1.17;;;11.90;99.90;;;;;;6247763;22;20156;-47
2022/10/06 03:21:33;;;;;;;14.50;2.00;;;11.80;99.90;;;;;;6247873;22;20488;-47
2022/10/06 03:23:59;;;;;;;9.20;1.80;;;11.80;99.90;;;;;;6247741;22;20156;-50
2022/10/06 03:26:32;;;;;;;6.10;1.57;;;11.70;99.90;;;;;;6248059;22;20482;-47
2022/10/06 03:28:59;;;;;;;8.13;1.77;;;11.70;99.90;;;;;;6247757;22;20144;-48
2022/10/06 03:31:25;;;;;;;9.17;1.70;;;11.70;99.90;;;;;;6247679;22;20179;-49
2022/10/06 03:33:53;;;;;;;9.60;1.80;;;11.70;99.90;;;;;;6247553;22;20155;-49
2022/10/06 03:36:21;;;;;;;6.97;1.20;;;11.60;99.90;;;;;;6247880;22;20210;-47
2022/10/06 03:38:47;;;;;;;7.60;1.70;;;11.60;99.90;;;;;;6248226;22;20151;-48
2022/10/06 03:41:26;;;;;;;5.80;1.50;;;11.60;99.90;;;;;;6248397;22;20156;-47
2022/10/06 03:43:54;;;;;;;5.73;1.40;;;11.60;99.90;;;;;;6248518;22;20558;-48
2022/10/06 03:46:31;;;;;;;7.83;1.37;;;11.50;99.90;;;;;;6248908;22;20144;-42
2022/10/06 03:48:58;;;;;;;7.80;1.50;;;11.50;99.90;;;;;;6248357;22;20144;-39
2022/10/06 03:51:26;;;;;;;8.87;2.20;;;11.40;99.90;;;;;;6246270;23;20163;-41
2022/10/06 03:53:52;;;;;;;7.93;1.43;;;11.40;99.90;;;;;;6246005;23;20160;-42
2022/10/06 03:56:23;;;;;;;2.57;0.90;;;11.40;99.90;;;;;;6245442;23;20151;-40
2022/10/06 03:58:52;;;;;;;9.23;1.30;;;11.40;99.90;;;;;;6247683;22;20139;-41
2022/10/06 04:01:24;;;;;;;5.53;1.30;;;11.40;99.90;;;;;;6247108;22;20155;-42
2022/10/06 04:03:50;;;;;;;11.73;1.90;;;11.30;99.90;;;;;;6247519;22;20198;-41
2022/10/06 04:06:17;;;;;;;17.10;2.00;;;11.30;99.90;;;;;;6247406;22;20152;-42
2022/10/06 04:08:45;;;;;;;7.17;1.40;;;11.30;99.90;;;;;;6247042;22;20151;-43
2022/10/06 04:11:19;;;;;;;8.20;2.30;;;11.20;99.90;;;;;;6245738;23;20159;-41
2022/10/06 04:13:45;;;;;;;10.50;1.60;;;11.30;99.90;;;;;;6247458;22;20131;-43
2022/10/06 04:16:25;;;;;;;9.23;1.53;;;11.20;99.90;;;;;;6246814;22;20601;-40
2022/10/06 04:18:53;;;;;;;12.20;1.87;;;11.20;99.90;;;;;;6247538;22;20139;-43
2022/10/06 04:21:19;;;;;;;5.97;1.87;;;11.10;99.90;;;;;;6245542;23;20671;-42
2022/10/06 04:23:45;;;;;;;7.80;1.60;;;11.10;99.90;;;;;;6245934;23;20163;-40
2022/10/06 04:26:14;;;;;;;11.03;1.73;;;11.00;99.90;;;;;;6247500;22;20620;-44
2022/10/06 04:28:42;;;;;;;9.70;1.50;;;10.90;99.90;;;;;;6247285;22;20220;-40
2022/10/06 04:31:17;;;;;;;8.73;1.50;;;10.90;99.90;;;;;;6246812;22;20230;-40
2022/10/06 04:33:45;;;;;;;7.90;1.40;;;10.80;99.90;;;;;;6247904;22;20155;-41
2022/10/06 04:36:14;;;;;;;10.40;1.50;;;10.80;99.90;;;;;;6246602;22;20152;-40
2022/10/06 04:38:39;;;;;;;6.77;1.83;;;10.70;99.90;;;;;;6246863;22;20463;-42
2022/10/06 04:41:07;;;;;;;10.70;1.60;;;10.70;99.90;;;;;;6247361;22;20174;-40
2022/10/06 04:43:34;;;;;;;10.43;1.77;;;10.70;99.90;;;;;;6246612;22;20148;-42
2022/10/06 04:46:00;;;;;;;8.90;1.53;;;10.70;99.90;;;;;;6246576;22;20285;-39
2022/10/06 04:48:27;;;;;;;9.10;1.70;;;10.70;99.90;;;;;;6246579;22;20179;-42
2022/10/06 04:50:58;;;;;;;7.73;1.30;;;10.60;99.90;;;;;;6245457;23;20156;-41
2022/10/06 04:53:24;;;;;;;10.97;1.50;;;10.60;99.90;;;;;;6246529;22;20163;-40
2022/10/06 04:55:58;;;;;;;8.93;1.47;;;10.50;99.90;;;;;;6247076;22;20179;-42
2022/10/06 04:58:24;;;;;;;4.30;1.13;;;10.50;99.90;;;;;;6246711;22;20259;-41
2022/10/06 05:00:49;;;;;;;9.60;2.60;;;10.40;99.90;;;;;;6246985;22;20598;-41
2022/10/06 05:03:15;;;;;;;6.50;1.57;;;10.40;99.90;;;;;;6246427;22;20223;-42
2022/10/06 05:05:42;;;;;;;13.47;2.03;;;10.40;99.90;;;;;;6246549;22;20497;-41
2022/10/06 05:08:08;;;;;;;10.33;2.00;;;10.30;99.90;;;;;;6245399;23;20265;-41
2022/10/06 05:10:33;;;;;;;8.23;2.03;;;10.30;99.90;;;;;;6246906;22;20204;-42
2022/10/06 05:12:59;;;;;;;11.97;2.00;;;10.30;99.90;;;;;;6246444;22;20168;-42
2022/10/06 05:15:26;;;;;;;11.37;1.90;;;10.30;99.90;;;;;;6246537;22;20274;-43
2022/10/06 05:17:52;;;;;;;9.60;1.80;;;10.30;99.90;;;;;;6246207;22;20236;-41
2022/10/06 05:20:21;;;;;;;8.73;2.00;;;10.30;99.90;;;;;;6246394;22;20152;-42
2022/10/06 05:22:47;;;;;;;8.80;1.93;;;10.40;99.90;;;;;;6246699;22;20163;-42
2022/10/06 05:25:12;;;;;;;11.13;1.57;;;10.40;99.90;;;;;;6246254;22;20620;-42
2022/10/06 05:27:38;;;;;;;10.13;2.50;;;10.30;99.90;;;;;;6246172;22;20254;-44
2022/10/06 05:30:04;;;;;;;10.63;2.20;;;10.30;99.90;;;;;;6246253;22;20533;-41
2022/10/06 05:32:29;;;;;;;6.80;1.73;;;10.30;99.90;;;;;;6246707;22;20180;-42
2022/10/06 05:34:55;;;;;;;6.50;1.53;;;10.30;99.90;;;;;;6246094;22;20189;-42
2022/10/06 05:37:20;;;;;;;11.00;1.70;;;10.30;99.90;;;;;;6246793;22;20180;-42
2022/10/06 05:39:46;;;;;;;6.13;1.60;;;10.20;99.90;;;;;;6246691;22;20217;-42
2022/10/06 05:42:12;;;;;;;8.40;1.73;;;10.20;99.90;;;;;;6246486;22;20150;-42
2022/10/06 05:44:37;;;;;;;12.63;2.43;;;10.20;99.90;;;;;;6244565;23;20177;-43
2022/10/06 05:47:03;;;;;;;7.40;1.40;;;10.20;99.90;;;;;;6246069;22;20178;-43
2022/10/06 05:49:28;;;;;;;7.27;1.90;;;10.20;99.90;;;;;;6246014;22;20162;-43
2022/10/06 05:51:54;;;;;;;8.13;2.07;;;10.20;99.90;;;;;;6246105;22;20166;-42
2022/10/06 05:54:19;;;;;;;7.20;1.70;;;10.10;99.90;;;;;;6246762;22;20206;-43
2022/10/06 05:56:45;;;;;;;13.83;2.07;;;10.10;99.90;;;;;;6246029;22;20638;-42
2022/10/06 05:59:10;;;;;;;14.37;2.00;;;10.10;99.90;;;;;;6246509;22;20241;-43
2022/10/06 06:01:41;;;;;;;11.03;1.87;;;10.10;99.90;;;;;;6246052;22;20154;-42
2022/10/06 06:04:09;;;;;;;9.60;2.73;;;10.00;99.90;;;;;;6246051;22;20146;-42
2022/10/06 06:06:37;;;;;;;10.10;1.80;;;10.00;99.90;;;;;;6246323;22;20642;-44
2022/10/06 06:09:07;;;;;;;9.63;1.93;;;10.00;99.90;;;;;;6246716;22;20241;-46
2022/10/06 06:11:35;;;;;;;9.47;2.03;;;10.00;99.90;;;;;;6245130;23;20553;-47
2022/10/06 06:14:04;;;;;;;9.43;2.10;;;10.00;99.90;;;;;;6244419;23;20631;-45
2022/10/06 06:16:30;;;;;;;11.83;2.20;;;10.00;99.90;;;;;;6244309;23;20190;-46
2022/10/06 06:18:56;;;;;;;8.10;1.97;;;9.90;99.90;;;;;;6246127;22;20158;-46
2022/10/06 06:21:22;;;;;;;15.10;2.03;;;10.00;99.90;;;;;;6244599;23;20189;-46
2022/10/06 06:23:49;;;;;;;12.67;1.83;;;10.00;99.90;;;;;;6246091;22;20246;-47
2022/10/06 06:26:27;;;;;;;8.50;1.97;;;10.00;99.90;;;;;;6244249;23;20162;-47
2022/10/06 06:28:55;;;;;;;12.40;1.80;;;10.00;99.90;;;;;;6246287;22;20139;-45
2022/10/06 06:31:27;;;;;;;13.87;2.23;;;10.00;99.90;;;;;;6246199;22;20163;-46
2022/10/06 06:33:55;;;;;;;10.63;1.67;;;10.00;99.90;;;;;;6244052;23;20234;-47
2022/10/06 06:36:26;;;;;;;13.77;2.63;;;10.10;99.90;;;;;;6246110;22;20170;-47
2022/10/06 06:38:57;;;;;;;21.10;2.83;;;10.10;99.90;;;;;;6246142;22;20169;-45
2022/10/06 06:41:32;;;;;;;14.63;2.20;;;10.20;99.90;;;;;;6244350;23;20159;-46
2022/10/06 06:43:59;;;;;;;11.00;2.40;;;10.20;99.90;;;;;;6220216;23;20159;-46
2022/10/06 06:46:30;;;;;;;9.77;1.80;;;10.30;99.90;;;;;;6244412;23;20183;-46
2022/10/06 06:49:03;;;;;;;14.40;2.20;;;10.30;99.90;;;;;;6219547;23;20606;-45
2022/10/06 06:51:35;;;;;;;14.93;2.47;;;10.40;99.90;;;;;;6244272;23;20151;-46
2022/10/06 06:54:01;;;;;;;10.43;2.07;;;10.40;99.90;;;;;;6219282;23;20605;-46
2022/10/06 06:56:33;;;;;;;14.63;2.33;;;10.50;99.90;;;;;;6244308;23;20189;-46
2022/10/06 06:59:01;;;;;;;13.10;1.90;;;10.50;99.90;;;;;;6244208;23;20208;-48
2022/10/06 07:01:27;;;;;;;7.00;1.47;;;10.60;99.90;;;;;;6246164;23;20233;-46
2022/10/06 07:03:54;;;;;;;6.63;1.73;;;10.70;99.90;;;;;;6248454;22;20162;-46
2022/10/06 07:06:22;;;;;;;15.00;2.37;;;10.70;99.90;;;;;;6247803;22;20183;-46
2022/10/06 07:08:48;;;;;;;13.53;1.93;;;10.80;99.90;;;;;;6247661;22;20627;-47
2022/10/06 07:11:19;;;;;;;9.97;2.33;;;10.90;99.90;;;;;;6247867;22;20157;-47
2022/10/06 07:13:49;;;;;;;10.17;2.27;;;10.90;99.90;;;;;;6247881;22;20158;-48
2022/10/06 07:27:28;;;;;;;13.30;2.47;;;11.30;99.90;;;;;;6248324;23;20277;-46
2022/10/06 07:29:55;;;;;;;7.70;1.90;;;11.30;99.90;;;;;;6247469;22;20179;-45
2022/10/06 07:32:26;;;;;;;17.07;2.60;;;11.40;99.90;;;;;;6247451;22;20166;-47
2022/10/06 07:34:52;;;;;;;12.93;2.03;;;11.50;99.90;;;;;;6247362;22;20621;-45
2022/10/06 07:40:08;;;;;;;15.30;2.23;;;11.60;99.90;;;;;;6247842;23;20186;-39
2022/10/06 07:42:47;;;;;;;20.23;3.13;;;11.60;99.90;;;;;;6247625;23;20167;-41
2022/10/06 07:45:45;;;;;;;12.57;2.80;;;11.70;99.90;;;;;;6247608;23;20151;-40
2022/10/06 07:48:19;;;;;;;10.10;2.03;;;11.80;99.90;;;;;;6247336;22;20523;-39
2022/10/06 07:50:50;;;;;;;16.87;3.13;;;11.80;99.90;;;;;;6247561;23;20154;-38
2022/10/06 07:53:17;;;;;;;20.40;2.87;;;11.90;99.90;;;;;;6221469;23;20155;-40
2022/10/06 07:55:45;;;;;;;14.03;3.17;;;11.90;99.90;;;;;;6247388;23;20186;-41
2022/10/06 07:58:22;;;;;;;13.30;2.57;;;12.00;99.90;;;;;;6247431;22;20204;-40
2022/10/06 08:00:48;;;;;;;9.83;1.77;;;12.10;99.90;;;;;;6221099;23;20143;-40
2022/10/06 08:03:18;;;;;;;20.43;2.43;;;12.20;99.90;;;;;;6220209;23;20215;-42
2022/10/06 08:05:48;;;;;;;9.53;2.40;;;12.20;99.90;;;;;;6197165;23;20157;-42
2022/10/06 08:08:13;;;;;;;19.17;2.53;;;12.30;99.90;;;;;;6247481;22;20169;-42
2022/10/06 08:10:40;;;;;;;11.80;1.83;;;12.40;99.90;;;;;;6246404;23;20158;-40
2022/10/06 08:13:06;;;;;;;12.67;2.30;;;12.40;99.90;;;;;;6246978;23;20159;-40
2022/10/06 08:15:33;;;;;;;13.10;2.93;;;12.50;99.90;;;;;;6247064;23;20171;-40
2022/10/06 08:18:00;;;;;;;11.70;2.80;;;12.60;99.90;;;;;;6246735;22;20185;-41
2022/10/06 08:20:26;;;;;;;16.10;2.30;;;12.60;99.90;;;;;;6247366;23;20158;-42
2022/10/06 08:22:52;;;;;;;12.30;2.33;;;12.70;99.90;;;;;;6220629;23;20242;-41
2022/10/06 08:25:19;;;;;;;12.10;1.90;;;12.70;99.90;;;;;;6247021;23;20170;-39
2022/10/06 08:27:44;;;;;;;13.00;2.00;;;12.80;99.90;;;;;;6246968;22;20174;-43
2022/10/06 08:30:11;;;;;;;8.07;1.93;;;12.90;99.90;;;;;;6246907;23;20205;-40
2022/10/06 08:32:37;;;;;;;15.20;2.53;;;12.90;99.90;;;;;;6247067;23;20170;-40
2022/10/06 08:35:04;;;;;;;16.27;2.17;;;13.00;99.90;;;;;;6246994;23;20174;-42
2022/10/06 08:37:29;;;;;;;18.17;2.60;;;13.00;99.90;;;;;;6246849;22;20207;-41
2022/10/06 08:39:56;;;;;;;11.70;1.97;;;13.10;99.90;;;;;;6246804;23;20167;-39
2022/10/06 08:42:27;;;;;;;11.80;2.10;;;13.20;99.90;;;;;;6247004;22;20160;-40
2022/10/06 08:45:00;;;;;;;13.13;2.57;;;13.30;99.90;;;;;;6247039;22;20496;-40
2022/10/06 08:47:33;;;;;;;6.37;2.20;;;13.40;99.90;;;;;;6246858;22;20546;-37
2022/10/06 08:49:59;;;;;;;6.93;2.10;;;13.50;99.90;;;;;;6246619;22;20215;-41
2022/10/06 08:52:45;;;;;;;18.17;2.37;;;13.50;99.90;;;;;;6246987;22;20497;-40
2022/10/06 08:55:23;;;;;;;17.17;2.77;;;13.60;99.90;;;;;;6246877;22;20505;-41
2022/10/06 08:58:05;;;;;;;11.47;2.23;;;13.70;99.90;;;;;;6246905;22;20508;-41
2022/10/06 09:00:35;;;;;;;13.90;2.80;;;13.80;99.90;;;;;;6247168;22;20222;-38
2022/10/06 09:03:02;;;;;;;9.20;1.93;;;13.80;99.90;;;;;;6246876;22;20167;-37
2022/10/06 09:05:30;;;;;;;16.80;2.67;;;13.90;99.90;;;;;;6246503;22;20156;-41
2022/10/06 09:07:58;;;;;;;15.57;2.47;;;14.00;99.90;;;;;;6246670;22;20180;-38
2022/10/06 09:10:50;;;;;;;19.60;3.30;;;14.00;99.90;;;;;;6246798;22;20210;-38
2022/10/06 09:13:34;;;;;;;11.27;2.13;;;14.10;99.90;;;;;;6238964;23;20242;-39
2022/10/06 09:16:06;;;;;;;14.60;2.37;;;14.10;99.90;;;;;;6246734;22;20601;-42
2022/10/06 09:18:42;;;;;;;13.27;2.33;;;14.20;99.90;;;;;;6247343;22;20143;-40
2022/10/06 09:21:18;;;;;;;13.77;1.90;;;14.20;99.90;;;;;;6247470;22;20174;-40
2022/10/06 09:23:52;;;;;;;8.57;1.60;;;14.30;99.90;;;;;;6246655;22;20147;-39
2022/10/06 09:26:21;;;;;;;10.80;1.60;;;14.40;99.90;;;;;;6246316;22;20140;-41
2022/10/06 09:28:51;;;;;;;9.27;2.20;;;14.50;99.90;;;;;;6246498;22;20233;-41
2022/10/06 09:31:40;;;;;;;7.33;1.47;;;14.60;99.90;;;;;;6246638;22;20186;-39
2022/10/06 09:34:37;;;;;;;9.13;1.67;;;14.60;99.90;;;;;;6244852;23;20223;-41
2022/10/06 09:37:09;;;;;;;5.77;1.73;;;14.70;99.90;;;;;;6244716;23;20517;-39
2022/10/06 09:39:37;;;;;;;8.13;2.80;;;14.80;99.90;;;;;;6246228;22;20478;-43
2022/10/06 09:42:11;;;;;;;11.90;1.83;;;14.90;99.90;;;;;;6244670;23;20158;-42
2022/10/06 09:44:51;;;;;;;13.23;1.97;;;15.00;99.90;;;;;;6246713;22;20159;-39
2022/10/06 09:47:32;;;;;;;9.77;2.00;;;15.00;99.90;;;;;;6246208;22;20229;-38
2022/10/06 09:50:02;;;;;;;12.43;1.47;;;15.10;99.90;;;;;;6246377;22;20139;-39
2022/10/06 09:52:28;;;;;;;11.00;2.10;;;15.20;99.90;;;;;;6246357;22;20160;-41
2022/10/06 09:55:08;;;;;;;11.77;1.77;;;15.30;99.90;;;;;;6245990;22;20470;-41
2022/10/06 09:57:36;;;;;;;10.17;1.97;;;15.30;99.90;;;;;;6246326;22;20172;-41
2022/10/06 10:00:03;;;;;;;7.60;1.50;;;15.40;99.90;;;;;;6246427;22;20155;-39
2022/10/06 10:02:38;;;;;;;9.43;1.80;;;15.40;99.90;;;;;;6245947;22;20612;-39
2022/10/06 10:05:18;;;;;;;7.93;1.50;;;15.50;99.90;;;;;;6244520;23;20158;-42
2022/10/06 10:07:46;;;;;;;16.43;2.20;;;15.50;99.90;;;;;;6246035;22;20171;-41
2022/10/06 10:10:23;;;;;;;8.67;1.80;;;15.60;99.90;;;;;;6244402;23;20155;-42
2022/10/06 10:12:57;;;;;;;11.90;1.90;;;15.70;99.90;;;;;;6246472;22;20215;-43
2022/10/06 10:15:39;;;;;;;12.27;2.53;;;15.80;99.90;;;;;;6246304;22;20545;-41
2022/10/06 10:18:12;;;;;;;10.60;1.90;;;15.80;99.90;;;;;;6244283;23;20514;-41
2022/10/06 10:20:51;;;;;;;9.57;2.10;;;15.90;99.90;;;;;;6246046;22;20641;-41
2022/10/06 10:23:19;;;;;;;9.23;1.90;;;15.90;99.90;;;;;;6244436;23;20179;-41
2022/10/06 10:25:57;;;;;;;9.53;1.90;;;16.00;99.90;;;;;;6245826;22;20246;-42
2022/10/06 10:28:41;;;;;;;8.70;1.87;;;16.10;99.90;;;;;;6246203;22;20544;-41
2022/10/06 10:31:19;;;;;;;7.97;1.77;;;16.20;99.90;;;;;;6246252;22;20140;-40
2022/10/06 10:34:01;;;;;;;8.50;1.87;;;16.30;99.90;;;;;;6245983;22;20151;-42
2022/10/06 10:36:38;;;;;;;11.63;2.03;;;16.30;99.90;;;;;;6246556;23;20647;-43
2022/10/06 10:39:11;;;;;;;5.87;1.60;;;16.40;99.90;;;;;;6247937;22;20168;-41
2022/10/06 10:41:47;;;;;;;7.63;1.70;;;16.50;99.90;;;;;;6248189;22;20189;-44
2022/10/06 10:44:33;;;;;;;9.83;1.70;;;16.60;99.90;;;;;;6248509;22;20146;-40
2022/10/06 10:47:21;;;;;;;9.43;1.90;;;16.70;99.90;;;;;;6247638;22;20695;-40
2022/10/06 10:49:57;;;;;;;6.53;1.77;;;16.80;99.90;;;;;;6248115;22;20489;-40
2022/10/06 10:52:28;;;;;;;7.60;1.60;;;16.80;99.90;;;;;;6248668;22;20148;-43
2022/10/06 10:55:19;;;;;;;10.83;2.07;;;16.90;99.90;;;;;;6248023;22;20199;-44
2022/10/06 10:57:47;;;;;;;7.77;1.70;;;16.90;99.90;;;;;;6247873;22;20176;-40
2022/10/06 11:00:24;;;;;;;7.33;1.80;;;17.00;99.90;;;;;;6247912;22;20161;-43
2022/10/06 11:02:53;;;;;;;7.27;1.70;;;17.00;99.90;;;;;;6247904;22;20136;-41
2022/10/06 11:06:04;;;;;;;6.70;1.67;;;17.00;99.90;;;;;;6246004;23;20167;-40
2022/10/06 11:08:53;;;;;;;6.40;2.20;;;17.10;99.90;;;;;;6247917;22;20478;-41
2022/10/06 11:11:39;;;;;;;7.73;1.83;;;17.20;99.90;;;;;;6247579;22;20178;-41
2022/10/06 11:14:18;;;;;;;8.33;1.63;;;17.20;99.90;;;;;;6248040;23;20140;-40
2022/10/06 11:17:12;;;;;;;8.43;1.87;;;17.30;99.90;;;;;;6247819;22;20246;-42
2022/10/06 11:20:00;;;;;;;11.53;1.70;;;17.40;99.90;;;;;;6247671;22;20143;-43
2022/10/06 11:22:34;;;;;;;7.23;1.57;;;17.40;99.90;;;;;;6235078;23;20151;-38
2022/10/06 11:25:05;;;;;;;6.07;1.60;;;17.50;99.90;;;;;;6247638;23;20167;-40
2022/10/06 11:27:55;;;;;;;6.13;1.30;;;17.60;99.90;;;;;;6247485;22;20687;-43
2022/10/06 11:30:25;;;;;;;5.20;1.60;;;17.60;99.90;;;;;;6249455;22;20140;-47
2022/10/06 11:33:13;;;;;;;4.43;1.23;;;17.60;99.90;;;;;;6253410;22;20139;-45
2022/10/06 11:35:41;;;;;;;6.80;1.50;;;17.70;99.90;;;;;;6252700;22;20516;-48
2022/10/06 11:38:33;;;;;;;7.27;1.50;;;17.80;99.90;;;;;;6253771;22;20659;-46
2022/10/06 11:41:21;;;;;;;9.70;1.97;;;17.80;99.90;;;;;;6254275;22;20218;-46
2022/10/06 11:43:53;;;;;;;4.60;1.30;;;17.80;99.90;;;;;;6249683;23;20231;-46
2022/10/06 11:46:32;;;;;;;7.63;1.60;;;17.90;99.90;;;;;;6248785;23;20144;-45
2022/10/06 11:49:29;;;;;;;7.33;1.40;;;18.00;99.90;;;;;;6248690;23;20233;-46
2022/10/06 11:52:06;;;;;;;6.70;1.70;;;18.00;99.90;;;;;;6248421;23;20286;-48
2022/10/06 11:54:46;;;;;;;5.00;1.33;;;18.00;99.90;;;;;;6249825;22;20172;-46
2022/10/06 11:57:26;;;;;;;6.67;1.40;;;18.00;99.90;;;;;;6248622;23;20565;-46
2022/10/06 11:59:55;;;;;;;4.43;1.30;;;18.00;99.90;;;;;;6249565;23;20163;-45
2022/10/06 12:02:43;;;;;;;4.80;1.47;;;18.00;99.90;;;;;;6250908;22;20156;-47
2022/10/06 12:05:09;;;;;;;5.60;1.50;;;18.10;99.90;;;;;;6251051;22;20174;-46
2022/10/06 12:07:53;;;;;;;8.17;1.30;;;18.10;99.90;;;;;;6249545;23;20179;-47
2022/10/06 12:10:28;;;;;;;7.07;1.40;;;18.10;99.90;;;;;;6249065;23;20219;-46
2022/10/06 12:13:21;;;;;;;7.63;1.80;;;18.10;99.90;;;;;;6252090;22;20163;-46
2022/10/06 12:16:21;;;;;;;7.47;1.60;;;18.10;99.90;;;;;;6250980;23;20175;-48
2022/10/06 12:19:06;;;;;;;5.10;1.43;;;18.20;99.90;;;;;;6246302;23;20159;-48
2022/10/06 12:21:48;;;;;;;2.70;1.03;;;18.30;99.90;;;;;;6251856;22;20147;-45
2022/10/06 12:24:41;;;;;;;6.20;1.53;;;18.30;99.90;;;;;;6250992;22;20143;-48
2022/10/06 12:27:37;;;;;;;4.23;1.27;;;18.40;99.90;;;;;;6250842;23;20167;-46
2022/10/06 12:30:27;;;;;;;3.70;1.30;;;18.40;99.90;;;;;;6251234;22;20190;-47
2022/10/06 12:32:54;;;;;;;6.70;1.50;;;18.40;99.90;;;;;;6251265;22;20151;-46
2022/10/06 12:35:38;;;;;;;4.03;1.57;;;18.40;99.90;;;;;;6250269;22;20199;-47
2022/10/06 12:38:25;;;;;;;3.70;1.30;;;18.50;99.90;;;;;;6250521;22;20263;-47
2022/10/06 12:40:54;;;;;;;4.53;0.97;;;18.50;99.90;;;;;;6249256;23;20247;-48
2022/10/06 12:43:22;;;;;;;5.50;1.57;;;18.60;99.90;;;;;;6251041;22;20159;-46
2022/10/06 12:46:33;;;;;;;7.67;1.23;;;18.70;99.90;;;;;;6251764;22;20156;-45
2022/10/06 12:49:48;;;;;;;5.27;1.20;;;18.70;99.90;;;;;;6246291;23;20543;-45
2022/10/06 12:52:50;;;;;;;3.77;1.30;;;18.80;99.90;;;;;;6230948;22;20160;-46
2022/10/06 12:55:52;;;;;;;5.57;1.90;;;18.80;99.90;;;;;;6249288;23;20186;-47
2022/10/06 12:58:27;;;;;;;4.53;1.20;;;18.90;99.90;;;;;;6250216;22;20167;-46
2022/10/06 13:01:25;;;;;;;4.73;2.00;;;19.00;99.90;;;;;;6250170;22;20137;-46
2022/10/06 13:03:57;;;;;;;6.50;1.40;;;19.00;99.90;;;;;;6209254;23;20163;-48
2022/10/06 13:06:27;;;;;;;6.97;1.50;;;19.00;99.90;;;;;;6249456;22;20180;-44
2022/10/06 13:09:12;;;;;;;5.13;1.10;;;18.90;99.90;;;;;;6247173;23;20174;-47
2022/10/06 13:11:45;;;;;;;3.50;1.07;;;18.90;99.90;;;;;;6248572;22;20498;-47
2022/10/06 13:14:15;;;;;;;8.67;1.43;;;19.00;99.90;;;;;;6248819;22;20199;-48
2022/10/06 13:16:44;;;;;;;3.90;1.20;;;19.00;99.90;;;;;;6248325;22;20236;-48
2022/10/06 13:19:22;;;;;;;6.13;1.50;;;19.10;99.90;;;;;;6248450;22;20152;-46
2022/10/06 13:21:48;;;;;;;6.80;1.30;;;19.00;99.90;;;;;;6249072;22;20151;-47
2022/10/06 13:24:19;;;;;;;4.63;1.10;;;19.00;99.90;;;;;;6247822;22;20152;-46
2022/10/06 13:26:46;;;;;;;4.30;1.33;;;19.10;99.90;;;;;;6248014;22;20221;-46
2022/10/06 13:29:24;;;;;;;3.63;1.20;;;19.10;99.90;;;;;;6247901;22;20162;-47
2022/10/06 13:31:52;;;;;;;5.70;1.17;;;19.10;99.90;;;;;;6248225;22;20152;-45